createdAt,value
2023-05-03T00:04:01.529Z,101585.72
2023-05-03T00:08:57.894Z,101576.09
2023-05-03T00:13:54.297Z,101570.38
2023-05-03T00:18:50.719Z,101584.16
2023-05-03T00:23:47.156Z,101575.97
2023-05-03T00:28:43.806Z,101586.31
2023-05-03T00:33:40.820Z,101591.16
2023-05-03T00:38:37.488Z,101584.38
2023-05-03T00:43:34.347Z,101577.47
2023-05-03T00:48:30.953Z,101573.19
2023-05-03T00:53:27.454Z,101572.38
2023-05-03T00:58:24.960Z,101567.25
2023-05-03T01:03:21.598Z,101578.03
2023-05-03T01:08:31.928Z,101577.47
2023-05-03T01:13:47.171Z,101580.16
2023-05-03T01:18:49.071Z,101572.66
2023-05-03T01:23:59.613Z,101583.28
2023-05-03T01:28:56.154Z,101579.22
2023-05-03T01:34:12.980Z,101579.47
2023-05-03T01:39:16.393Z,101587.53
2023-05-03T01:44:16.005Z,101588.44
2023-05-03T01:49:12.883Z,101585.97
2023-05-03T01:54:09.310Z,101592.13
2023-05-03T01:59:05.740Z,101599.88
2023-05-03T02:04:02.194Z,101593.03
2023-05-03T02:08:58.791Z,101600.25
2023-05-03T02:13:55.206Z,101604.06
2023-05-03T02:18:52.191Z,101604.28
2023-05-03T02:23:48.587Z,101608.13
2023-05-03T02:28:44.976Z,101604.63
2023-05-03T02:33:41.946Z,101612.66
2023-05-03T02:38:38.845Z,101618.75
2023-05-03T02:43:35.345Z,101618.41
2023-05-03T02:48:32.207Z,101620.41
2023-05-03T02:53:29.636Z,101622.59
2023-05-03T02:58:26.058Z,101634.16
2023-05-03T03:03:22.556Z,101629.72
2023-05-03T03:08:18.969Z,101638.59
2023-05-03T03:13:15.488Z,101625.53
2023-05-03T03:18:12.049Z,101630.19
2023-05-03T03:23:08.522Z,101623.56
2023-05-03T03:28:05.300Z,101627.31
2023-05-03T03:33:01.773Z,101624.75
2023-05-03T03:37:58.245Z,101625.47
2023-05-03T03:42:54.630Z,101621.94
2023-05-03T03:47:52.254Z,101620.94
2023-05-03T03:52:50.234Z,101619.88
2023-05-03T03:57:46.694Z,101609.50
2023-05-03T04:02:43.814Z,101604.41
2023-05-03T04:07:40.368Z,101613.81
2023-05-03T04:12:38.038Z,101610.44
2023-05-03T04:17:35.222Z,101617.16
2023-05-03T04:22:32.585Z,101615.19
2023-05-03T04:27:29.190Z,101615.81
2023-05-03T04:32:25.933Z,101623.56
2023-05-03T04:37:23.744Z,101619.97
2023-05-03T04:42:20.568Z,101611.91
2023-05-03T04:47:18.080Z,101619.41
2023-05-03T04:52:14.634Z,101621.63
2023-05-03T04:57:11.252Z,101615.31
2023-05-03T05:02:08.303Z,101622.59
2023-05-03T05:07:04.893Z,101619.81
2023-05-03T05:12:01.990Z,101615.91
2023-05-03T05:16:59.068Z,101622.72
2023-05-03T05:21:55.926Z,101622.59
2023-05-03T05:26:52.500Z,101630.75
2023-05-03T05:31:48.954Z,101629.66
2023-05-03T05:36:45.671Z,101631.97
2023-05-03T05:41:42.100Z,101633.56
2023-05-03T05:46:38.646Z,101650.38
2023-05-03T05:51:35.117Z,101658.03
2023-05-03T05:56:31.533Z,101661.13
2023-05-03T06:01:27.974Z,101661.09
2023-05-03T06:06:24.548Z,101663.25
2023-05-03T06:11:21.489Z,101670.16
2023-05-03T06:16:21.806Z,101680.59
2023-05-03T06:21:18.279Z,101678.16
2023-05-03T06:26:17.501Z,101688.34
2023-05-03T06:31:14.107Z,101684.66
2023-05-03T06:36:10.555Z,101698.28
2023-05-03T06:41:06.989Z,101692.78
2023-05-03T06:46:03.590Z,101697.31
2023-05-03T06:51:00.144Z,101686.63
2023-05-03T06:55:56.686Z,101694.03
2023-05-03T07:00:54.031Z,101688.22
2023-05-03T07:05:50.629Z,101693.91
2023-05-03T07:10:47.112Z,101698.69
2023-05-03T07:15:45.758Z,101689.06
2023-05-03T07:20:42.366Z,101691.53
2023-05-03T07:25:41.497Z,101694.94
2023-05-03T07:30:37.958Z,101690.53
2023-05-03T07:35:34.401Z,101681.81
2023-05-03T07:40:33.161Z,101666.19
2023-05-03T07:45:29.604Z,101670.00
2023-05-03T07:50:26.124Z,101672.78
2023-05-03T07:55:22.814Z,101660.50
2023-05-03T08:00:19.340Z,101662.78
2023-05-03T08:05:16.345Z,101648.88
2023-05-03T08:10:13.094Z,101644.47
2023-05-03T08:15:09.844Z,101647.78
2023-05-03T08:20:08.120Z,101637.41
2023-05-03T08:25:05.188Z,101636.06
2023-05-03T08:30:01.758Z,101637.22
2023-05-03T08:34:58.748Z,101641.38
2023-05-03T08:39:55.573Z,101630.56
2023-05-03T08:44:52.080Z,101632.38
2023-05-03T08:49:48.951Z,101640.66
2023-05-03T08:54:47.135Z,101635.75
2023-05-03T08:59:47.287Z,101634.78
2023-05-03T09:04:45.094Z,101627.91
2023-05-03T09:09:41.628Z,101633.19
2023-05-03T09:14:47.437Z,101636.97
2023-05-03T09:20:02.399Z,101629.63
2023-05-03T09:25:01.029Z,101631.38
2023-05-03T09:29:57.431Z,101630.16
2023-05-03T09:35:09.533Z,101633.06
2023-05-03T09:40:08.124Z,101636.16
2023-05-03T09:45:05.291Z,101631.53
2023-05-03T09:50:01.960Z,101632.38
2023-05-03T09:54:58.390Z,101628.56
2023-05-03T09:59:56.020Z,101611.72
2023-05-03T10:04:56.566Z,101610.09
2023-05-03T10:09:53.053Z,101600.00
2023-05-03T10:14:52.995Z,101591.34
2023-05-03T10:19:57.680Z,101596.91
2023-05-03T10:25:03.187Z,101593.25
2023-05-03T10:30:00.243Z,101585.06
2023-05-03T10:35:00.896Z,101588.22
2023-05-03T10:40:11.507Z,101583.19
2023-05-03T10:45:09.006Z,101587.75
2023-05-03T10:50:14.364Z,101584.47
2023-05-03T10:55:11.364Z,101587.13
2023-05-03T11:00:18.244Z,101570.19
2023-05-03T11:05:18.551Z,101563.13
2023-05-03T11:10:18.756Z,101566.88
2023-05-03T11:15:15.197Z,101546.66
2023-05-03T11:20:11.903Z,101529.94
2023-05-03T11:25:10.247Z,101535.53
2023-05-03T11:30:08.085Z,101524.94
2023-05-03T11:35:07.254Z,101519.91
2023-05-03T11:40:05.083Z,101522.22
2023-05-03T11:45:02.061Z,101516.81
2023-05-03T11:49:58.861Z,101507.38
2023-05-03T11:54:56.286Z,101514.94
2023-05-03T11:59:52.696Z,101509.16
2023-05-03T12:04:49.519Z,101508.75
2023-05-03T12:09:54.575Z,101518.53
2023-05-03T12:15:03.566Z,101516.53
2023-05-03T12:21:05.057Z,101504.44
2023-05-03T12:25:39.197Z,101494.47
2023-05-03T12:30:38.350Z,101489.50
2023-05-03T12:35:39.976Z,101495.34
2023-05-03T12:40:39.128Z,101489.72
2023-05-03T12:45:38.515Z,101482.22
2023-05-03T12:50:38.823Z,101475.63
2023-05-03T12:55:41.952Z,101473.97
2023-05-03T13:00:46.702Z,101466.03
2023-05-03T13:05:56.786Z,101465.91
2023-05-03T13:10:53.390Z,101464.72
2023-05-03T13:15:49.783Z,101464.53
2023-05-03T13:20:47.714Z,101462.88
2023-05-03T13:25:44.704Z,101458.94
2023-05-03T13:30:41.086Z,101441.25
2023-05-03T13:35:37.584Z,101437.81
2023-05-03T13:40:34.359Z,101427.75
2023-05-03T13:45:30.737Z,101415.63
2023-05-03T13:50:30.887Z,101413.34
2023-05-03T13:55:27.318Z,101400.38
2023-05-03T14:00:23.830Z,101398.81
2023-05-03T14:05:20.215Z,101394.00
2023-05-03T14:10:16.696Z,101387.91
2023-05-03T14:15:13.355Z,101388.47
2023-05-03T14:20:12.017Z,101374.16
2023-05-03T14:25:09.028Z,101351.34
2023-05-03T14:30:07.258Z,101361.81
2023-05-03T14:35:03.955Z,101362.56
2023-05-03T14:40:00.624Z,101353.63
2023-05-03T14:44:57.053Z,101346.72
2023-05-03T14:49:53.439Z,101333.19
2023-05-03T14:54:49.820Z,101320.38
2023-05-03T14:59:47.785Z,101317.09
2023-05-03T15:04:44.265Z,101311.84
2023-05-03T15:09:41.099Z,101307.59
2023-05-03T15:14:37.966Z,101305.06
2023-05-03T15:19:34.385Z,101312.44
2023-05-03T15:24:30.930Z,101314.75
2023-05-03T15:29:27.383Z,101307.38
2023-05-03T15:34:23.813Z,101296.25
2023-05-03T15:39:20.334Z,101298.09
2023-05-03T15:44:17.106Z,101298.00
2023-05-03T15:49:13.766Z,101311.09
2023-05-03T15:54:10.298Z,101293.13
2023-05-03T15:59:07.516Z,101294.09
2023-05-03T16:04:04.264Z,101289.72
2023-05-03T16:09:00.812Z,101290.91
2023-05-03T16:13:57.282Z,101287.44
2023-05-03T16:18:53.795Z,101284.69
2023-05-03T16:23:50.201Z,101290.13
2023-05-03T16:28:48.843Z,101289.19
2023-05-03T16:33:46.413Z,101286.66
2023-05-03T16:38:42.863Z,101291.53
2023-05-03T16:43:39.991Z,101291.63
2023-05-03T16:48:36.464Z,101279.25
2023-05-03T16:53:32.969Z,101254.97
2023-05-03T16:58:29.499Z,101239.75
2023-05-03T17:03:26.079Z,101236.38
2023-05-03T17:08:22.735Z,101234.19
2023-05-03T17:13:19.143Z,101250.44
2023-05-03T17:18:15.888Z,101249.31
2023-05-03T17:23:12.423Z,101238.41
2023-05-03T17:28:09.532Z,101237.75
2023-05-03T17:33:06.027Z,101229.25
2023-05-03T17:38:02.543Z,101237.41
2023-05-03T17:42:58.995Z,101237.59
2023-05-03T17:47:56.410Z,101238.06
2023-05-03T17:52:54.486Z,101247.09
2023-05-03T17:57:50.904Z,101260.16
2023-05-03T18:02:48.159Z,101254.19
2023-05-03T18:07:44.924Z,101266.44
2023-05-03T18:12:42.296Z,101271.66
2023-05-03T18:17:38.771Z,101262.72
2023-05-03T18:22:35.205Z,101271.13
2023-05-03T18:27:31.709Z,101264.31
2023-05-03T18:32:28.167Z,101275.41
2023-05-03T18:37:24.995Z,101274.50
2023-05-03T18:42:22.417Z,101278.44
2023-05-03T18:47:21.537Z,101280.56
2023-05-03T18:52:21.904Z,101277.41
2023-05-03T18:57:18.839Z,101280.28
2023-05-03T19:02:15.242Z,101272.59
2023-05-03T19:07:11.719Z,101276.31
2023-05-03T19:12:08.629Z,101284.53
2023-05-03T19:17:05.059Z,101274.28
2023-05-03T19:22:01.750Z,101279.06
2023-05-03T19:26:58.166Z,101286.22
2023-05-03T19:31:54.708Z,101288.56
2023-05-03T19:36:51.170Z,101286.19
2023-05-03T19:41:47.632Z,101299.16
2023-05-03T19:46:44.486Z,101292.13
2023-05-03T19:51:40.902Z,101292.38
2023-05-03T19:56:37.283Z,101293.31
2023-05-03T20:01:33.680Z,101284.03
2023-05-03T20:06:30.368Z,101285.56
2023-05-03T20:11:26.865Z,101281.84
2023-05-03T20:16:27.076Z,101284.47
2023-05-03T20:21:23.715Z,101282.28
2023-05-03T20:26:20.272Z,101281.16
2023-05-03T20:31:17.460Z,101279.22
2023-05-03T20:36:16.734Z,101284.53
2023-05-03T20:41:13.469Z,101272.53
2023-05-03T20:46:09.853Z,101272.91
2023-05-03T20:51:09.524Z,101274.06
2023-05-03T20:56:07.667Z,101272.53
2023-05-03T21:01:05.261Z,101270.63
2023-05-03T21:06:01.781Z,101266.09
2023-05-03T21:10:58.155Z,101264.56
2023-05-03T21:15:55.218Z,101259.94
2023-05-03T21:20:53.639Z,101258.41
2023-05-03T21:25:50.088Z,101254.63
2023-05-03T21:30:49.647Z,101245.50
2023-05-03T21:35:46.082Z,101253.44
2023-05-03T21:40:42.557Z,101242.84
2023-05-03T21:45:43.332Z,101242.06
2023-05-03T21:50:39.875Z,101241.59
2023-05-03T21:55:36.315Z,101227.94
2023-05-03T22:00:33.088Z,101242.84
2023-05-03T22:05:29.538Z,101234.91
2023-05-03T22:10:25.935Z,101228.56
2023-05-03T22:15:22.338Z,101233.53
2023-05-03T22:20:18.756Z,101230.28
2023-05-03T22:25:25.361Z,101235.50
2023-05-03T22:30:21.879Z,101228.81
2023-05-03T22:35:18.236Z,101230.28
2023-05-03T22:40:14.747Z,101229.84
2023-05-03T22:45:11.425Z,101227.25
2023-05-03T22:50:08.243Z,101225.56
2023-05-03T22:55:05.125Z,101227.91
2023-05-03T23:00:01.777Z,101227.47
2023-05-03T23:04:58.262Z,101229.75
2023-05-03T23:10:02.967Z,101224.63
2023-05-03T23:14:59.757Z,101217.84
2023-05-03T23:19:56.338Z,101215.06
2023-05-03T23:24:52.688Z,101209.97
2023-05-03T23:29:50.535Z,101207.88
2023-05-03T23:34:47.592Z,101199.06
2023-05-03T23:39:45.201Z,101196.56
2023-05-03T23:44:53.117Z,101192.13
2023-05-03T23:49:51.503Z,101191.91
2023-05-03T23:54:47.970Z,101185.91
2023-05-03T23:59:44.523Z,101180.53
